Time;durP1;ratioP1;P1;durP2;ratioP2;P2;SDS_P1;SDS_P2;PMS_P1;PMS_P2;Temp;Humidity;BMP_temperature;BMP_pressure;BME280_temperature;BME280_humidity;BME280_pressure;Samples;Min_cycle;Max_cycle;Signal;HPM_P1;HPM_P2
2023/11/02 00:01:53;;;;;;;;;;;;;;;16.56;55.55;100692.78;5072195;28;880;-43
2023/11/02 00:04:19;;;;;;;;;;;;;;;16.47;55.13;100697.19;5083455;28;1906;-44
2023/11/02 00:06:49;;;;;;;;;;;;;;;16.37;54.96;100700.78;5079215;28;1053;-44
2023/11/02 00:09:33;;;;;;;;;;;;;;;17.07;55.81;100706.47;5097694;28;1190;-45
2023/11/02 00:12:05;;;;;;;;;;;;;;;17.37;55.09;100703.91;5097195;28;1249;-40
2023/11/02 00:14:34;;;;;;;;;;;;;;;16.81;55.74;100713.91;5079381;28;876;-44
2023/11/02 00:17:00;;;;;;;;;;;;;;;16.56;55.61;100712.84;5077887;28;955;-41
2023/11/02 00:19:32;;;;;;;;;;;;;;;16.48;55.34;100718.03;5096478;28;1037;-40
2023/11/02 00:22:07;;;;;;;;;;;;;;;16.55;55.86;100715.84;5097086;28;1163;-42
2023/11/02 00:24:52;;;;;;;;;;;;;;;17.70;54.43;100713.41;5086983;28;1949;-41
2023/11/02 00:27:17;;;;;;;;;;;;;;;16.91;55.61;100704.84;5082722;28;1125;-45
2023/11/02 00:29:43;;;;;;;;;;;;;;;16.69;55.46;100708.72;5096767;28;1081;-42
2023/11/02 00:32:09;;;;;;;;;;;;;;;16.52;55.29;100710.91;5096618;28;1050;-42
2023/11/02 00:34:37;;;;;;;;;;;;;;;16.79;56.13;100705.13;5066810;28;1329;-44
2023/11/02 00:37:03;;;;;;;;;;;;;;;17.54;54.78;100701.63;5077494;28;1176;-45
2023/11/02 00:39:28;;;;;;;;;;;;;;;16.92;55.75;100692.78;5089280;28;1051;-41
2023/11/02 00:41:54;;;;;;;;;;;;;;;16.68;55.51;100690.59;5090792;28;1117;-40
2023/11/02 00:44:20;;;;;;;;;;;;;;;16.54;55.34;100684.03;5050801;28;1918;-42
2023/11/02 00:46:45;;;;;;;;;;;;;;;16.40;55.19;100700.22;5082394;28;1118;-45
2023/11/02 00:49:17;;;;;;;;;;;;;;;17.46;54.92;100688.50;5091667;28;1105;-40
2023/11/02 00:51:43;;;;;;;;;;;;;;;17.07;55.46;100690.00;5083498;28;1126;-41
2023/11/02 00:54:08;;;;;;;;;;;;;;;16.75;55.46;100685.63;5096095;28;1063;-45
2023/11/02 00:56:35;;;;;;;;;;;;;;;16.54;55.29;100689.50;5065438;28;1060;-42
2023/11/02 00:59:01;;;;;;;;;;;;;;;17.69;54.34;100681.50;5095863;28;1074;-43
2023/11/02 01:01:26;;;;;;;;;;;;;;;17.01;55.43;100673.81;5081897;28;1049;-41
2023/11/02 01:03:53;;;;;;;;;;;;;;;16.74;55.50;100688.66;5064431;28;1914;-40
2023/11/02 01:06:20;;;;;;;;;;;;;;;16.53;55.50;100676.88;5083763;28;1127;-45
2023/11/02 01:09:09;;;;;;;;;;;;;;;16.97;55.96;100667.22;5081122;28;1109;-41
2023/11/02 01:11:35;;;;;;;;;;;;;;;17.30;54.83;100662.97;5091673;28;1625;-42
2023/11/02 01:14:10;;;;;;;;;;;;;;;16.83;55.66;100665.03;5097283;28;1130;-43
2023/11/02 01:16:36;;;;;;;;;;;;;;;16.65;55.20;100669.19;5091119;28;1116;-43
2023/11/02 01:19:02;;;;;;;;;;;;;;;17.17;55.43;100669.09;5064344;28;1174;-41
2023/11/02 01:21:29;;;;;;;;;;;;;;;17.23;54.90;100677.03;5065234;28;1047;-42
2023/11/02 01:24:06;;;;;;;;;;;;;;;16.81;55.34;100674.66;5079825;28;1988;-40
2023/11/02 01:26:39;;;;;;;;;;;;;;;16.64;55.43;100672.22;5094836;28;1206;-46
2023/11/02 01:29:04;;;;;;;;;;;;;;;16.48;55.08;100664.00;5068332;28;1080;-40
2023/11/02 01:31:30;;;;;;;;;;;;;;;16.39;55.11;100671.94;5100072;28;1017;-46
2023/11/02 01:33:58;;;;;;;;;;;;;;;17.65;54.39;100663.09;5072024;28;1065;-44
2023/11/02 01:36:31;;;;;;;;;;;;;;;17.00;55.37;100656.50;5102915;28;1075;-43
2023/11/02 01:39:01;;;;;;;;;;;;;;;16.65;55.58;100657.34;5094124;28;867;-44
2023/11/02 01:41:38;;;;;;;;;;;;;;;16.48;55.45;100652.16;5084783;28;1007;-43
2023/11/02 01:44:20;;;;;;;;;;;;;;;17.54;54.45;100648.59;5092643;28;1985;-42
2023/11/02 01:46:51;;;;;;;;;;;;;;;16.84;55.53;100652.94;5102020;28;1139;-43
2023/11/02 01:49:23;;;;;;;;;;;;;;;16.64;55.39;100655.72;5100998;28;1121;-42
2023/11/02 01:51:48;;;;;;;;;;;;;;;16.49;55.11;100651.06;5065202;28;1104;-40
2023/11/02 01:54:35;;;;;;;;;;;;;;;16.64;55.96;100644.75;5082268;28;1162;-44
2023/11/02 01:57:03;;;;;;;;;;;;;;;17.35;54.53;100648.38;5051337;28;1259;-43
2023/11/02 01:59:50;;;;;;;;;;;;;;;16.77;55.35;100645.00;5068295;28;1274;-42
2023/11/02 02:02:34;;;;;;;;;;;;;;;16.51;55.43;100646.13;5075054;28;1156;-42
2023/11/02 02:05:04;;;;;;;;;;;;;;;16.39;55.18;100640.94;5102442;28;1968;-42
2023/11/02 02:07:48;;;;;;;;;;;;;;;17.15;55.48;100643.81;5084118;28;1039;-44
2023/11/02 02:10:21;;;;;;;;;;;;;;;17.07;55.13;100639.72;5102371;28;1062;-43
2023/11/02 02:13:06;;;;;;;;;;;;;;;16.68;55.55;100641.16;5072209;28;1201;-41
2023/11/02 02:15:45;;;;;;;;;;;;;;;17.57;54.31;100635.09;5085949;28;841;-40
2023/11/02 02:18:30;;;;;;;;;;;;;;;16.95;55.23;100636.47;5073892;28;1237;-43
2023/11/02 02:20:58;;;;;;;;;;;;;;;16.65;55.25;100635.41;5080821;28;1278;-44
2023/11/02 02:23:31;;;;;;;;;;;;;;;16.51;55.10;100635.13;5074756;28;1967;-39
2023/11/02 02:26:15;;;;;;;;;;;;;;;17.56;54.42;100627.13;5077358;28;1625;-40
2023/11/02 02:28:52;;;;;;;;;;;;;;;16.97;55.10;100624.09;5064172;28;1356;-40
2023/11/02 02:31:28;;;;;;;;;;;;;;;16.67;55.47;100623.03;5072430;28;1102;-40
2023/11/02 02:34:00;;;;;;;;;;;;;;;16.55;54.92;100628.84;5086077;28;1113;-42
2023/11/02 02:36:29;;;;;;;;;;;;;;;16.84;55.50;100627.41;5080689;28;1166;-40
2023/11/02 02:39:00;;;;;;;;;;;;;;;17.57;54.00;100629.59;5094956;28;936;-39
2023/11/02 02:41:29;;;;;;;;;;;;;;;16.87;55.21;100635.06;5085452;28;1110;-42
2023/11/02 02:43:55;;;;;;;;;;;;;;;16.64;55.41;100642.81;5071487;28;1906;-40
2023/11/02 02:46:21;;;;;;;;;;;;;;;16.80;55.51;100632.63;5060700;28;1050;-43
2023/11/02 02:48:47;;;;;;;;;;;;;;;17.52;54.18;100626.88;5088498;28;1110;-39
2023/11/02 02:51:12;;;;;;;;;;;;;;;16.91;54.99;100627.97;5066880;28;1600;-41
2023/11/02 02:53:38;;;;;;;;;;;;;;;16.70;55.06;100622.47;5088953;28;1111;-45
2023/11/02 02:56:07;;;;;;;;;;;;;;;16.54;54.91;100612.66;5056477;28;1201;-41
2023/11/02 02:58:53;;;;;;;;;;;;;;;16.43;54.82;100617.31;5060821;28;1190;-39
2023/11/02 03:01:19;;;;;;;;;;;;;;;17.67;53.92;100606.72;5091326;28;1462;-39
2023/11/02 03:03:45;;;;;;;;;;;;;;;17.00;55.01;100604.31;5073193;28;1906;-43
2023/11/02 03:06:11;;;;;;;;;;;;;;;16.73;55.00;100608.22;5060119;28;1086;-40
2023/11/02 03:08:38;;;;;;;;;;;;;;;16.52;54.99;100593.72;5078251;28;1023;-40
2023/11/02 03:11:03;;;;;;;;;;;;;;;17.04;55.49;100590.81;5091978;28;1129;-38
2023/11/02 03:13:29;;;;;;;;;;;;;;;17.28;54.54;100591.00;5060266;28;1455;-42
2023/11/02 03:15:55;;;;;;;;;;;;;;;16.77;55.39;100586.50;5077690;28;1046;-43
2023/11/02 03:18:21;;;;;;;;;;;;;;;16.58;55.24;100569.81;5067708;28;1249;-41
2023/11/02 03:20:46;;;;;;;;;;;;;;;17.29;54.77;100573.38;5066161;28;1007;-41
2023/11/02 03:23:15;;;;;;;;;;;;;;;17.19;54.56;100565.22;5067474;28;1984;-43
2023/11/02 03:25:40;;;;;;;;;;;;;;;16.80;55.02;100561.22;5078360;28;1049;-38
2023/11/02 03:28:06;;;;;;;;;;;;;;;16.57;55.20;100551.69;5059938;28;1171;-42
2023/11/02 03:30:40;;;;;;;;;;;;;;;17.57;54.04;100560.03;5096752;28;1094;-40
2023/11/02 03:33:12;;;;;;;;;;;;;;;17.03;55.02;100558.97;5097547;28;1046;-38
2023/11/02 03:35:42;;;;;;;;;;;;;;;16.72;55.06;100562.63;5060036;28;1455;-42
2023/11/02 03:38:11;;;;;;;;;;;;;;;16.60;54.97;100564.88;5090948;28;1038;-41
2023/11/02 03:40:55;;;;;;;;;;;;;;;17.07;55.18;100549.06;5090686;28;1281;-43
2023/11/02 03:43:23;;;;;;;;;;;;;;;17.13;54.70;100552.63;5097343;28;1984;-40
2023/11/02 03:46:08;;;;;;;;;;;;;;;16.78;55.08;100541.47;5068799;28;1152;-42
2023/11/02 03:48:45;;;;;;;;;;;;;;;16.57;55.11;100547.03;5067610;28;1000;-42
2023/11/02 03:51:11;;;;;;;;;;;;;;;16.80;55.44;100539.25;5088967;28;1070;-41
2023/11/02 03:53:46;;;;;;;;;;;;;;;17.50;54.14;100540.28;5085990;28;1204;-40
2023/11/02 03:56:30;;;;;;;;;;;;;;;16.82;55.20;100541.75;5093634;28;1129;-39
2023/11/02 03:59:12;;;;;;;;;;;;;;;16.62;55.26;100546.22;5077428;28;1303;-41
2023/11/02 04:01:37;;;;;;;;;;;;;;;16.49;54.89;100552.28;5083135;28;1379;-46
2023/11/02 04:04:04;;;;;;;;;;;;;;;16.41;54.57;100556.38;5092667;28;1906;-46
2023/11/02 04:06:51;;;;;;;;;;;;;;;17.06;54.93;100559.22;5083470;28;1057;-41
2023/11/02 04:09:18;;;;;;;;;;;;;;;17.07;54.85;100554.56;5077169;28;1119;-42
2023/11/02 04:11:59;;;;;;;;;;;;;;;16.69;55.33;100554.97;5091157;28;1095;-42
2023/11/02 04:14:24;;;;;;;;;;;;;;;16.51;55.22;100550.06;5077686;28;1050;-42
2023/11/02 04:16:50;;;;;;;;;;;;;;;17.37;54.66;100553.56;5083351;28;1166;-43
2023/11/02 04:19:15;;;;;;;;;;;;;;;17.13;54.71;100553.44;5092467;28;1034;-44
2023/11/02 04:21:41;;;;;;;;;;;;;;;16.77;55.23;100540.66;5095423;28;1157;-42
2023/11/02 04:24:07;;;;;;;;;;;;;;;16.55;55.20;100551.16;5065511;28;1976;-46
2023/11/02 04:26:32;;;;;;;;;;;;;;;17.57;54.38;100551.78;5086750;28;1593;-42
2023/11/02 04:28:58;;;;;;;;;;;;;;;17.19;54.84;100551.47;5077307;28;1041;-41
2023/11/02 04:31:23;;;;;;;;;;;;;;;16.81;55.01;100546.41;5082044;28;1118;-42
2023/11/02 04:33:49;;;;;;;;;;;;;;;16.61;55.13;100558.28;5076518;28;1026;-43
2023/11/02 04:36:14;;;;;;;;;;;;;;;16.50;54.97;100562.97;5079146;28;1226;-40
2023/11/02 04:38:40;;;;;;;;;;;;;;;16.47;55.28;100560.78;5085069;28;1030;-42
2023/11/02 04:41:05;;;;;;;;;;;;;;;17.66;54.29;100550.06;5083825;28;1073;-43
2023/11/02 04:43:31;;;;;;;;;;;;;;;16.99;55.39;100557.91;5095622;28;1971;-44
2023/11/02 04:45:56;;;;;;;;;;;;;;;16.67;55.61;100557.16;5096852;28;1222;-46
2023/11/02 04:48:22;;;;;;;;;;;;;;;16.51;55.16;100561.03;5089286;28;1030;-46
2023/11/02 04:50:52;;;;;;;;;;;;;;;17.10;55.21;100543.00;5087438;28;1163;-42
2023/11/02 04:53:18;;;;;;;;;;;;;;;17.15;55.04;100564.13;5083855;28;1161;-44
2023/11/02 04:55:44;;;;;;;;;;;;;;;16.75;54.97;100559.31;5082350;28;1427;-42
2023/11/02 04:58:09;;;;;;;;;;;;;;;16.55;55.22;100564.88;5078036;28;1055;-42
2023/11/02 05:00:34;;;;;;;;;;;;;;;16.41;55.05;100559.13;5085589;28;1050;-44
2023/11/02 05:03:00;;;;;;;;;;;;;;;17.09;55.22;100569.66;5094060;28;1144;-41
2023/11/02 05:05:26;;;;;;;;;;;;;;;17.34;54.44;100578.88;5086813;28;1905;-42
2023/11/02 05:07:51;;;;;;;;;;;;;;;16.80;55.64;100572.19;5089423;28;1275;-41
2023/11/02 05:10:17;;;;;;;;;;;;;;;16.57;55.59;100579.97;5083860;28;1402;-40
2023/11/02 05:12:42;;;;;;;;;;;;;;;16.43;55.39;100589.88;5082814;28;1390;-42
2023/11/02 05:15:10;;;;;;;;;;;;;;;17.00;55.47;100582.34;5086834;28;1272;-38
2023/11/02 05:17:35;;;;;;;;;;;;;;;17.43;54.37;100579.94;5081497;28;1003;-39
2023/11/02 05:20:02;;;;;;;;;;;;;;;16.81;55.67;100578.53;5075978;28;1119;-43
2023/11/02 05:22:27;;;;;;;;;;;;;;;16.63;55.48;100571.72;5076349;28;1125;-41
2023/11/02 05:24:53;;;;;;;;;;;;;;;16.46;55.27;100566.56;5075935;28;1980;-45
2023/11/02 05:27:18;;;;;;;;;;;;;;;17.60;54.50;100563.03;5094883;28;1524;-42
2023/11/02 05:29:44;;;;;;;;;;;;;;;17.03;55.37;100554.31;5095861;28;1098;-42
2023/11/02 05:32:09;;;;;;;;;;;;;;;16.69;55.75;100532.16;5076683;28;1142;-43
2023/11/02 05:34:35;;;;;;;;;;;;;;;17.56;54.14;100506.19;5075974;28;1105;-39
2023/11/02 05:37:00;;;;;;;;;;;;;;;16.60;54.04;100497.03;5088959;28;1063;-42
2023/11/02 05:39:26;;;;;;;;;;;;;;;16.39;52.48;100500.97;5088471;28;1138;-45
2023/11/02 05:41:51;;;;;;;;;;;;;;;16.23;51.14;100509.25;5082423;28;1112;-43
2023/11/02 05:44:17;;;;;;;;;;;;;;;16.07;50.54;100500.25;5095721;28;1905;-43
2023/11/02 05:46:42;;;;;;;;;;;;;;;16.79;52.84;100504.69;5095961;28;1059;-41
2023/11/02 05:49:08;;;;;;;;;;;;;;;16.35;51.63;100506.19;5088042;28;1050;-46
2023/11/02 05:51:33;;;;;;;;;;;;;;;16.09;50.62;100497.22;5093751;28;1066;-40
2023/11/02 05:53:59;;;;;;;;;;;;;;;16.11;49.66;100500.50;5095750;28;1160;-42
2023/11/02 05:56:24;;;;;;;;;;;;;;;16.03;49.36;100506.53;5064904;28;1094;-46
2023/11/02 05:58:53;;;;;;;;;;;;;;;15.99;48.47;100503.53;5067725;28;1194;-42
2023/11/02 06:01:19;;;;;;;;;;;;;;;15.85;48.23;100502.44;5097034;28;1331;-42
2023/11/02 06:03:47;;;;;;;;;;;;;;;15.85;47.53;100510.66;5087882;28;1917;-42
2023/11/02 06:06:12;;;;;;;;;;;;;;;16.89;50.30;100510.16;5098341;28;1046;-44
2023/11/02 06:08:38;;;;;;;;;;;;;;;16.14;50.86;100502.66;5087244;28;1209;-40
2023/11/02 06:11:04;;;;;;;;;;;;;;;15.99;49.69;100499.94;5088901;28;1043;-43
2023/11/02 06:13:29;;;;;;;;;;;;;;;15.87;49.00;100503.81;5091409;28;1370;-43
2023/11/02 06:15:55;;;;;;;;;;;;;;;16.49;49.77;100511.91;5091359;28;1173;-41
2023/11/02 06:18:20;;;;;;;;;;;;;;;16.30;50.39;100525.44;5091676;28;1142;-40
2023/11/02 06:20:46;;;;;;;;;;;;;;;16.10;49.47;100536.44;5088845;28;1091;-39
2023/11/02 06:23:11;;;;;;;;;;;;;;;15.94;48.69;100549.34;5085300;28;1057;-42
2023/11/02 06:25:37;;;;;;;;;;;;;;;15.89;48.01;100559.22;5088382;28;1906;-41
2023/11/02 06:28:03;;;;;;;;;;;;;;;15.81;47.60;100567.13;5097059;28;1162;-42
2023/11/02 06:30:28;;;;;;;;;;;;;;;16.46;49.57;100580.28;5093765;28;1130;-40
2023/11/02 06:32:58;;;;;;;;;;;;;;;15.98;49.01;100584.16;5085281;28;1014;-41
2023/11/02 06:35:24;;;;;;;;;;;;;;;16.99;49.93;100577.94;5073880;28;983;-49
2023/11/02 06:37:59;;;;;;;;;;;;;;;16.45;50.16;100573.94;5087736;28;1079;-50
2023/11/02 06:40:24;;;;;;;;;;;;;;;16.33;50.43;100579.75;5090906;28;1293;-49
2023/11/02 06:42:50;;;;;;;;;;;;;;;16.95;50.66;100579.59;5097729;28;995;-50
2023/11/02 06:45:16;;;;;;;;;;;;;;;16.41;50.34;100584.69;5074570;28;1980;-50
2023/11/02 06:47:41;;;;;;;;;;;;;;;16.30;49.08;100572.06;5082973;28;1046;-49
2023/11/02 06:50:07;;;;;;;;;;;;;;;16.18;48.67;100568.78;5086152;28;1212;-48
2023/11/02 06:52:33;;;;;;;;;;;;;;;16.71;50.17;100577.47;5085060;28;1095;-48
2023/11/02 06:54:58;;;;;;;;;;;;;;;16.32;49.13;100558.88;5071160;28;1097;-47
2023/11/02 06:57:25;;;;;;;;;;;;;;;16.26;49.13;100527.06;5083206;28;1137;-46
2023/11/02 06:59:51;;;;;;;;;;;;;;;16.18;48.09;100494.72;5085894;28;1010;-49
2023/11/02 07:02:17;;;;;;;;;;;;;;;16.10;47.45;100482.38;5087920;28;1096;-48
2023/11/02 07:04:43;;;;;;;;;;;;;;;16.12;47.72;100468.38;5079066;28;1901;-51
2023/11/02 07:07:08;;;;;;;;;;;;;;;16.56;49.72;100479.53;5089123;28;1198;-50
2023/11/02 07:09:34;;;;;;;;;;;;;;;16.28;48.83;100511.16;5074073;28;1122;-45
2023/11/02 07:12:00;;;;;;;;;;;;;;;15.98;48.43;100509.31;5095537;28;1197;-45
2023/11/02 07:14:25;;;;;;;;;;;;;;;16.58;49.16;100501.19;5084155;28;1212;-42
2023/11/02 07:16:51;;;;;;;;;;;;;;;16.45;49.92;100510.81;5087305;28;1177;-44
2023/11/02 07:19:16;;;;;;;;;;;;;;;16.22;48.86;100510.34;5094345;28;1090;-41
2023/11/02 07:21:42;;;;;;;;;;;;;;;16.07;48.41;100524.09;5082930;28;1152;-41
2023/11/02 07:24:07;;;;;;;;;;;;;;;15.97;47.82;100513.94;5090062;28;1901;-45
2023/11/02 07:26:33;;;;;;;;;;;;;;;15.84;47.40;100506.28;5097466;28;1077;-44
2023/11/02 07:28:58;;;;;;;;;;;;;;;17.14;48.97;100482.81;5080900;28;1034;-41
2023/11/02 07:31:24;;;;;;;;;;;;;;;16.33;49.84;100469.97;5078380;28;1196;-40
2023/11/02 07:33:49;;;;;;;;;;;;;;;16.16;49.04;100469.47;5082731;28;1129;-45
2023/11/02 07:36:15;;;;;;;;;;;;;;;16.77;49.45;100495.88;5094333;28;1058;-45
2023/11/02 07:38:40;;;;;;;;;;;;;;;16.41;49.77;100494.13;5093244;28;1146;-42
2023/11/02 07:41:06;;;;;;;;;;;;;;;16.13;49.23;100498.31;5087924;28;1027;-51
2023/11/02 07:43:32;;;;;;;;;;;;;;;16.36;48.93;100491.38;5096762;28;1914;-51
2023/11/02 07:45:58;;;;;;;;;;;;;;;17.20;49.81;100495.44;5090224;28;1037;-50
2023/11/02 07:48:23;;;;;;;;;;;;;;;16.60;49.85;100496.22;5078352;28;1343;-50
2023/11/02 07:50:49;;;;;;;;;;;;;;;16.32;48.97;100495.78;5096462;28;1311;-50
2023/11/02 07:53:14;;;;;;;;;;;;;;;16.14;48.22;100494.44;5096548;28;1182;-47
2023/11/02 07:55:42;;;;;;;;;;;;;;;17.04;49.35;100480.94;5097016;28;1090;-52
2023/11/02 07:58:07;;;;;;;;;;;;;;;16.41;49.41;100480.38;5088986;28;1299;-50
2023/11/02 08:00:33;;;;;;;;;;;;;;;16.28;48.57;100471.94;5091478;28;1152;-51
2023/11/02 08:02:58;;;;;;;;;;;;;;;16.18;48.02;100483.75;5080693;28;1177;-50
2023/11/02 08:05:24;;;;;;;;;;;;;;;16.84;49.03;100473.63;5076434;28;1967;-49
2023/11/02 08:07:49;;;;;;;;;;;;;;;16.39;49.01;100474.34;5081531;28;1231;-51
2023/11/02 08:10:15;;;;;;;;;;;;;;;16.22;48.25;100469.19;5081978;28;995;-53
2023/11/02 08:12:40;;;;;;;;;;;;;;;17.10;49.59;100477.88;5089645;28;1127;-53
2023/11/02 08:15:06;;;;;;;;;;;;;;;16.68;49.63;100481.94;5076547;28;1103;-48
2023/11/02 08:17:31;;;;;;;;;;;;;;;16.27;49.04;100473.84;5079874;28;1151;-51
2023/11/02 08:19:57;;;;;;;;;;;;;;;16.26;48.34;100461.22;5096307;28;1031;-50
2023/11/02 08:22:23;;;;;;;;;;;;;;;16.13;47.63;100468.13;5080720;28;1138;-48
2023/11/02 08:24:52;;;;;;;;;;;;;;;16.70;48.85;100465.16;5088354;28;1965;-49
2023/11/02 08:27:17;;;;;;;;;;;;;;;16.65;50.11;100460.53;5080643;28;1162;-47
2023/11/02 08:29:43;;;;;;;;;;;;;;;16.46;49.19;100457.59;5082209;28;1065;-49
2023/11/02 08:32:08;;;;;;;;;;;;;;;16.24;48.43;100444.22;5069695;28;1368;-50
2023/11/02 08:34:34;;;;;;;;;;;;;;;16.14;48.08;100444.25;5074218;28;1000;-40
2023/11/02 08:36:59;;;;;;;;;;;;;;;16.10;47.45;100440.44;5087233;28;1027;-39
2023/11/02 08:39:25;;;;;;;;;;;;;;;17.13;49.01;100434.47;5082573;28;1086;-39
2023/11/02 08:41:50;;;;;;;;;;;;;;;16.52;49.56;100428.19;5082478;28;1018;-43
2023/11/02 08:44:16;;;;;;;;;;;;;;;16.23;48.85;100434.38;5082081;28;1906;-38
2023/11/02 08:46:41;;;;;;;;;;;;;;;16.58;48.96;100438.06;5083274;28;1316;-42
2023/11/02 08:49:07;;;;;;;;;;;;;;;16.50;49.84;100438.66;5079141;28;1396;-38
2023/11/02 08:51:33;;;;;;;;;;;;;;;16.28;49.03;100433.50;5087436;28;1118;-37
2023/11/02 08:53:59;;;;;;;;;;;;;;;16.25;48.79;100435.69;5080433;28;1423;-41
2023/11/02 08:56:24;;;;;;;;;;;;;;;16.73;49.59;100435.25;5095707;28;1152;-41
2023/11/02 08:58:52;;;;;;;;;;;;;;;16.47;49.17;100428.25;5094752;28;1074;-44
2023/11/02 09:01:19;;;;;;;;;;;;;;;16.27;48.61;100435.44;5095537;28;1173;-42
2023/11/02 09:03:44;;;;;;;;;;;;;;;16.17;48.00;100433.56;5094877;28;1898;-40
2023/11/02 09:06:10;;;;;;;;;;;;;;;16.10;47.58;100423.97;5083809;28;1026;-40
2023/11/02 09:08:36;;;;;;;;;;;;;;;16.55;48.07;100417.47;5088868;28;1356;-40
2023/11/02 09:11:01;;;;;;;;;;;;;;;16.47;48.74;100420.81;5087168;28;1323;-41
2023/11/02 09:13:27;;;;;;;;;;;;;;;16.21;48.14;100417.34;5095967;28;1335;-42
2023/11/02 09:15:53;;;;;;;;;;;;;;;16.07;47.88;100412.47;5094071;28;1279;-39
2023/11/02 09:18:19;;;;;;;;;;;;;;;16.47;48.69;100412.56;5076797;28;1114;-38
2023/11/02 09:20:45;;;;;;;;;;;;;;;16.68;49.44;100407.81;5089899;28;1351;-39
2023/11/02 09:23:10;;;;;;;;;;;;;;;16.22;49.54;100397.06;5085748;28;1304;-38
2023/11/02 09:25:36;;;;;;;;;;;;;;;16.30;48.09;100401.13;5076742;28;1909;-39
2023/11/02 09:28:03;;;;;;;;;;;;;;;16.86;49.17;100397.28;5094211;28;1112;-40
2023/11/02 09:30:28;;;;;;;;;;;;;;;16.43;49.02;100397.78;5095040;28;1165;-40
2023/11/02 09:32:54;;;;;;;;;;;;;;;16.26;48.38;100392.66;5087895;28;1118;-44
2023/11/02 09:35:19;;;;;;;;;;;;;;;17.12;49.31;100392.44;5092569;28;976;-43
2023/11/02 09:37:45;;;;;;;;;;;;;;;17.04;50.03;100382.88;5079712;28;1193;-39
2023/11/02 09:40:10;;;;;;;;;;;;;;;16.55;49.40;100372.72;5092061;28;1075;-41
2023/11/02 09:42:36;;;;;;;;;;;;;;;16.34;48.98;100364.63;5093786;28;909;-39
2023/11/02 09:45:03;;;;;;;;;;;;;;;16.33;47.91;100360.22;5080820;28;1905;-39
2023/11/02 09:47:29;;;;;;;;;;;;;;;16.25;47.42;100358.06;5084814;28;1124;-40
2023/11/02 09:49:55;;;;;;;;;;;;;;;16.15;47.21;100341.66;5092446;28;1121;-43
2023/11/02 09:52:20;;;;;;;;;;;;;;;16.10;46.74;100337.00;5083546;28;1351;-37
2023/11/02 09:54:46;;;;;;;;;;;;;;;16.92;48.14;100328.31;5077940;28;1335;-40
2023/11/02 09:57:12;;;;;;;;;;;;;;;17.14;49.83;100327.03;5080605;28;1094;-39
2023/11/02 09:59:42;;;;;;;;;;;;;;;16.58;49.60;100312.59;5081041;28;1124;-39
2023/11/02 10:02:08;;;;;;;;;;;;;;;16.31;48.71;100296.56;5066314;28;1219;-40
2023/11/02 10:04:34;;;;;;;;;;;;;;;16.40;47.99;100288.59;5074256;28;1976;-40
2023/11/02 10:06:59;;;;;;;;;;;;;;;16.17;47.93;100284.59;5078911;28;953;-41
2023/11/02 10:09:25;;;;;;;;;;;;;;;16.20;47.01;100284.03;5092420;28;1082;-39
2023/11/02 10:11:50;;;;;;;;;;;;;;;17.09;48.90;100283.94;5082688;28;1058;-39
2023/11/02 10:14:16;;;;;;;;;;;;;;;16.87;50.10;100286.31;5079061;28;1237;-41
2023/11/02 10:16:42;;;;;;;;;;;;;;;16.58;49.42;100295.34;5089324;28;1043;-40
2023/11/02 10:19:10;;;;;;;;;;;;;;;16.32;48.56;100300.97;5080784;28;1090;-42
2023/11/02 10:21:38;;;;;;;;;;;;;;;16.62;48.85;100301.88;5082949;28;1055;-41
2023/11/02 10:24:04;;;;;;;;;;;;;;;17.21;49.96;100313.78;5092615;28;1909;-40
2023/11/02 10:26:29;;;;;;;;;;;;;;;16.63;49.40;100321.91;5080767;28;1039;-37
2023/11/02 10:28:56;;;;;;;;;;;;;;;16.51;48.58;100330.47;5096471;28;2347;-39
2023/11/02 10:31:27;;;;;;;;;;;;;;;16.36;47.83;100336.91;5081542;28;1986;-43
2023/11/02 10:33:52;;;;;;;;;;;;;;;17.65;49.16;100328.47;5068842;28;2151;-40
2023/11/02 10:36:18;;;;;;;;;;;;;;;16.82;50.00;100322.06;5085085;28;1792;-42
2023/11/02 10:38:44;;;;;;;;;;;;;;;16.59;49.07;100327.13;5087315;28;1910;-39
2023/11/02 10:41:14;;;;;;;;;;;;;;;16.50;48.10;100334.34;5086644;28;2100;-39
2023/11/02 10:43:41;;;;;;;;;;;;;;;16.38;47.44;100330.03;5082163;28;1909;-41
2023/11/02 10:46:06;;;;;;;;;;;;;;;16.80;48.33;100335.25;5069000;28;1126;-39
2023/11/02 10:48:32;;;;;;;;;;;;;;;16.82;49.37;100339.34;5081776;28;1046;-42
2023/11/02 10:50:57;;;;;;;;;;;;;;;16.43;48.78;100338.22;5060685;28;1027;-41
2023/11/02 10:53:28;;;;;;;;;;;;;;;16.41;47.52;100334.09;5062363;28;1118;-38
2023/11/02 10:55:55;;;;;;;;;;;;;;;16.36;46.95;100328.66;5088190;28;1207;-41
2023/11/02 10:58:21;;;;;;;;;;;;;;;16.93;47.86;100324.47;5073174;28;1108;-44
2023/11/02 11:00:47;;;;;;;;;;;;;;;16.73;49.00;100330.91;5088052;28;992;-38
2023/11/02 11:03:13;;;;;;;;;;;;;;;16.41;48.48;100328.63;5079859;28;1158;-38
2023/11/02 11:05:38;;;;;;;;;;;;;;;16.35;47.39;100321.53;5069447;28;1980;-43
2023/11/02 11:08:07;;;;;;;;;;;;;;;17.21;48.50;100321.22;5075087;28;1102;-41
2023/11/02 11:10:32;;;;;;;;;;;;;;;16.80;49.34;100310.53;5087343;28;1117;-41
2023/11/02 11:12:58;;;;;;;;;;;;;;;16.52;48.49;100300.03;5086932;28;1807;-40
2023/11/02 11:15:23;;;;;;;;;;;;;;;16.46;47.50;100297.59;5079682;28;1103;-38
2023/11/02 11:17:49;;;;;;;;;;;;;;;16.32;46.95;100292.72;5068556;28;1215;-42
2023/11/02 11:20:16;;;;;;;;;;;;;;;17.33;48.31;100291.41;5093665;28;1059;-43
2023/11/02 11:22:45;;;;;;;;;;;;;;;16.64;49.03;100296.13;5097537;28;1082;-42
2023/11/02 11:25:10;;;;;;;;;;;;;;;16.38;48.26;100283.38;5083081;28;1988;-43
2023/11/02 11:27:37;;;;;;;;;;;;;;;16.32;47.37;100290.00;5089254;28;1046;-45
2023/11/02 11:30:04;;;;;;;;;;;;;;;16.75;48.04;100283.94;5089933;28;1107;-41
2023/11/02 11:32:36;;;;;;;;;;;;;;;17.05;49.27;100280.13;5076777;28;1026;-44
2023/11/02 11:35:05;;;;;;;;;;;;;;;16.61;48.73;100267.31;5079337;28;1154;-42
2023/11/02 11:37:34;;;;;;;;;;;;;;;16.43;48.08;100271.53;5087573;28;1090;-43
2023/11/02 11:40:03;;;;;;;;;;;;;;;16.31;47.25;100260.91;5081074;28;1366;-39
2023/11/02 11:42:48;;;;;;;;;;;;;;;16.46;47.53;100260.00;5089422;28;1095;-45
2023/11/02 11:45:30;;;;;;;;;;;;;;;16.85;48.91;100255.59;5095561;28;2093;-41
2023/11/02 11:47:56;;;;;;;;;;;;;;;16.44;48.54;100248.50;5077036;28;1034;-45
2023/11/02 11:50:31;;;;;;;;;;;;;;;16.32;47.82;100246.09;5089559;28;1019;-40
2023/11/02 11:53:10;;;;;;;;;;;;;;;16.82;48.08;100250.66;5083853;28;1206;-41
2023/11/02 11:55:38;;;;;;;;;;;;;;;16.68;48.98;100245.03;5078994;28;1226;-38
2023/11/02 11:58:06;;;;;;;;;;;;;;;16.47;48.18;100231.44;5096719;28;1134;-45
2023/11/02 12:00:31;;;;;;;;;;;;;;;16.37;47.27;100224.13;5096578;28;979;-43
2023/11/02 12:03:03;;;;;;;;;;;;;;;16.22;46.90;100213.25;5096204;28;1002;-40
2023/11/02 12:05:44;;;;;;;;;;;;;;;17.38;48.40;100217.16;5091888;28;1974;-39
2023/11/02 12:08:10;;;;;;;;;;;;;;;16.89;49.52;100212.75;5089362;28;890;-40
2023/11/02 12:10:45;;;;;;;;;;;;;;;16.53;48.56;100211.06;5094461;28;1038;-38
2023/11/02 12:13:12;;;;;;;;;;;;;;;16.42;47.71;100210.38;5094142;28;2471;-43
2023/11/02 12:15:38;;;;;;;;;;;;;;;16.40;47.15;100212.56;5076826;28;991;-39
2023/11/02 12:18:03;;;;;;;;;;;;;;;16.24;47.12;100214.59;5057804;28;1400;-40
2023/11/02 12:20:35;;;;;;;;;;;;;;;17.44;48.68;100213.22;5075984;28;1003;-41
2023/11/02 12:23:00;;;;;;;;;;;;;;;16.70;49.08;100210.66;5089275;28;1181;-41
2023/11/02 12:25:26;;;;;;;;;;;;;;;16.50;48.04;100210.84;5092633;28;1905;-42
2023/11/02 12:27:56;;;;;;;;;;;;;;;16.42;47.69;100215.84;5085376;28;1058;-40
2023/11/02 12:30:21;;;;;;;;;;;;;;;17.38;48.55;100230.09;5077556;28;1081;-38
2023/11/02 12:32:47;;;;;;;;;;;;;;;16.70;49.01;100226.31;5084738;28;1134;-42
2023/11/02 12:35:13;;;;;;;;;;;;;;;16.52;48.13;100219.59;5088579;28;1087;-43
2023/11/02 12:37:38;;;;;;;;;;;;;;;16.42;47.33;100210.38;5075625;28;1063;-40
2023/11/02 12:40:05;;;;;;;;;;;;;;;16.22;46.86;100211.31;5089319;28;1265;-41
2023/11/02 12:42:35;;;;;;;;;;;;;;;16.21;46.47;100214.34;5092810;28;1401;-39
2023/11/02 12:45:00;;;;;;;;;;;;;;;17.10;48.45;100225.16;5086003;28;1899;-39
2023/11/02 12:47:36;;;;;;;;;;;;;;;17.00;49.15;100229.91;5086392;28;1031;-40
2023/11/02 12:50:01;;;;;;;;;;;;;;;16.46;48.74;100231.75;5075607;28;1229;-41
2023/11/02 12:52:39;;;;;;;;;;;;;;;16.43;47.63;100239.41;5057295;28;1214;-42